Bilbao, España

10:14 AM CEST en Agosto 30, 2014 (GMT +0200)
Campo Volantin | Change Station
CLOSE
Current Station
Estación meteorológica personal
Location: Bilbao, PAS VASCO
Altura: 200 ft
Estaciones meteorológicas cercanas

Alt 200 ft 43.27 °N, 2.93 °W | Updated 1 minute ago

Mostly Cloudy
Muy nublado
66.6 ° F
Sensación térmica 66.6 ° F
N
0.0
Viento Variable Viento desde SE
Gusts 3.0 mph

Hoy
Alta -- | Baja -- ° F
--% Posibilidad de precipitaciones
Ayer
Alta -- | Baja -- ° F
Precip. -- pul
7:33 AM 8:50 PM
Creciente, 20% visible
Presión 30.15 pul
Visibilidad 6.2 Millas
Nubes Baja 1800 ft
Muy nublado 5500 ft
Punto de rocío 60 ° F
Humedad 78%
Precipitaciones 0.05 pul
Espesor de la nieve No disponible.
UV 1 de una escala de 12
Polen No disponible.
Calidad del aire No disponible.
Flu Activity No disponible.
METAR LEBB 300800Z VRB02KT 9999 FEW018 BKN055 19/16 Q1021 NOSIG

More Conditions Fewer Conditions

Presión 30.15 pul
Visibilidad 6.2 Millas
Nubes Baja 1800 ft
Muy nublado 5500 ft
Punto de rocío 60 ° F
Humedad 78%
Precipitaciones 0.05 pul
Espesor de la nieve No disponible.
UV 1 de una escala de 12
Polen No disponible.
Calidad del aire No disponible.
Flu Activity No disponible.
METAR LEBB 300800Z VRB02KT 9999 FEW018 BKN055 19/16 Q1021 NOSIG

More Conditions Fewer Conditions

10-Day Weather Forecast

Almanac

Astronomía

Aug. 30, 2014 Salida Puesta
Hora real 7:33 AM CEST 8:50 PM CEST
Crepúsculo civil 7:03 AM CEST 9:20 PM CEST
Crepúsculo náutico 6:28 AM CEST 9:55 PM CEST
Crepúsculo astronómico 5:50 AM CEST 10:32 PM CEST
Luna 12:15 PM CEST 11:06 PM CEST
Horas de luz 14h 16m
Horas de luz
13h 17m
Tomorrow will be 2m 49s shorter.
Creciente, 20% of the Moon is Illuminated
Hoy
Creciente
Sep 2
Cuarto creciente
Sep 8
Luna llena
Sep 15
Cuarto menguante
Sep 24
Nueva

Extremos de ayer

Máximos del país Bajas del país

Community

WunderPhotos

Upload Photos

1,748,468 ¡fotos cargadas!

Nearby

Calidad del aire

Not available.

Grosos de nieve

Not available.

Actividad de terremotos

Ciudad Distance Mag. Tiempo y dato
No hay informes recientes de la actividad sísmica.
Magnitud mínima muestra es 2,5.

Temperaturas de aguas costeras

Lugar Temperatura
Sin partes meteorológicos de las estaciones

Estaciones meteorológicas cercanas